sensor_id;sensor_type;location;lat;lon;timestamp;pressure;altitude;pressure_sealevel;temperature;humidity
65280;BME280;51878;55.748;48.742;2022-09-13T00:00:43;99764.97;;;7.58;91.47
65280;BME280;51878;55.748;48.742;2022-09-13T00:03:11;99745.72;;;7.53;91.71
65280;BME280;51878;55.748;48.742;2022-09-13T00:05:38;99726.34;;;7.31;92.24
65280;BME280;51878;55.748;48.742;2022-09-13T00:08:06;99749.78;;;7.57;92.38
65280;BME280;51878;55.748;48.742;2022-09-13T00:10:35;99701.25;;;7.31;91.53
65280;BME280;51878;55.748;48.742;2022-09-13T00:13:04;99699.28;;;7.41;91.76
65280;BME280;51878;55.748;48.742;2022-09-13T00:15:32;99743.63;;;7.73;91.28
65280;BME280;51878;55.748;48.742;2022-09-13T00:17:59;99747.91;;;7.83;90.50
65280;BME280;51878;55.748;48.742;2022-09-13T00:20:26;99700.75;;;7.61;89.95
65280;BME280;51878;55.748;48.742;2022-09-13T00:22:54;99748.63;;;7.94;90.08
65280;BME280;51878;55.748;48.742;2022-09-13T00:25:23;99686.41;;;7.61;90.06
65280;BME280;51878;55.748;48.742;2022-09-13T00:27:51;99754.22;;;8.00;90.06
65280;BME280;51878;55.748;48.742;2022-09-13T00:30:18;99744.94;;;8.03;90.11
65280;BME280;51878;55.748;48.742;2022-09-13T00:32:45;99685.06;;;7.65;90.12
65280;BME280;51878;55.748;48.742;2022-09-13T00:35:12;99674.72;;;7.52;90.36
65280;BME280;51878;55.748;48.742;2022-09-13T00:37:39;99750.66;;;7.92;90.57
65280;BME280;51878;55.748;48.742;2022-09-13T00:40:06;99667.03;;;7.31;90.91
65280;BME280;51878;55.748;48.742;2022-09-13T00:42:33;99748.47;;;7.61;91.86
65280;BME280;51878;55.748;48.742;2022-09-13T00:47:40;99641.88;;;6.70;93.49
65280;BME280;51878;55.748;48.742;2022-09-13T00:50:36;99762.03;;;7.25;94.75
65280;BME280;51878;55.748;48.742;2022-09-13T00:53:11;99737.28;;;7.30;94.21
65280;BME280;51878;55.748;48.742;2022-09-13T00:55:45;99691.13;;;7.07;93.67
65280;BME280;51878;55.748;48.742;2022-09-13T00:58:18;99674.44;;;7.03;93.16
65280;BME280;51878;55.748;48.742;2022-09-13T01:00:47;99683.19;;;7.05;92.95
65280;BME280;51878;55.748;48.742;2022-09-13T01:03:16;99698.28;;;7.16;92.37
65280;BME280;51878;55.748;48.742;2022-09-13T01:05:47;99756.34;;;7.54;92.14
65280;BME280;51878;55.748;48.742;2022-09-13T01:08:16;99687.66;;;6.88;92.57
65280;BME280;51878;55.748;48.742;2022-09-13T01:10:52;99694.19;;;7.12;91.54
65280;BME280;51878;55.748;48.742;2022-09-13T01:13:23;99764.66;;;7.35;92.52
65280;BME280;51878;55.748;48.742;2022-09-13T01:15:51;99676.91;;;6.96;92.31
65280;BME280;51878;55.748;48.742;2022-09-13T01:18:19;99710.09;;;7.15;92.26
65280;BME280;51878;55.748;48.742;2022-09-13T01:46:16;99745.09;;;6.71;95.63
65280;BME280;51878;55.748;48.742;2022-09-13T01:51:42;99698.91;;;6.30;96.15
65280;BME280;51878;55.748;48.742;2022-09-13T01:54:20;99742.00;;;6.48;97.21
65280;BME280;51878;55.748;48.742;2022-09-13T01:57:42;99736.31;;;6.33;97.46
65280;BME280;51878;55.748;48.742;2022-09-13T02:00:08;99659.16;;;5.78;98.33
65280;BME280;51878;55.748;48.742;2022-09-13T02:05:30;99705.38;;;5.91;99.08
65280;BME280;51878;55.748;48.742;2022-09-13T02:08:03;99661.69;;;5.52;99.46
65280;BME280;51878;55.748;48.742;2022-09-13T02:10:43;99689.38;;;5.62;100.00
65280;BME280;51878;55.748;48.742;2022-09-13T02:13:20;99707.41;;;5.79;100.00
65280;BME280;51878;55.748;48.742;2022-09-13T02:15:52;99679.75;;;5.59;100.00
65280;BME280;51878;55.748;48.742;2022-09-13T02:18:30;99749.28;;;5.92;100.00
65280;BME280;51878;55.748;48.742;2022-09-13T02:21:16;99660.19;;;5.39;100.00
65280;BME280;51878;55.748;48.742;2022-09-13T02:23:59;99735.72;;;5.84;100.00
65280;BME280;51878;55.748;48.742;2022-09-13T02:26:28;99675.41;;;5.49;100.00
65280;BME280;51878;55.748;48.742;2022-09-13T02:28:58;99723.59;;;5.70;100.00
65280;BME280;51878;55.748;48.742;2022-09-13T02:31:34;99640.91;;;5.16;100.00
65280;BME280;51878;55.748;48.742;2022-09-13T02:34:10;99684.09;;;5.43;100.00
65280;BME280;51878;55.748;48.742;2022-09-13T02:36:40;99650.38;;;5.21;100.00
65280;BME280;51878;55.748;48.742;2022-09-13T02:39:15;99692.69;;;5.56;100.00
65280;BME280;51878;55.748;48.742;2022-09-13T02:41:51;99744.03;;;5.90;100.00
65280;BME280;51878;55.748;48.742;2022-09-13T02:44:51;99725.97;;;5.83;100.00
65280;BME280;51878;55.748;48.742;2022-09-13T02:47:42;99747.88;;;5.97;100.00
65280;BME280;51878;55.748;48.742;2022-09-13T02:50:48;99746.72;;;6.00;100.00
65280;BME280;51878;55.748;48.742;2022-09-13T02:53:39;99742.03;;;6.02;100.00
65280;BME280;51878;55.748;48.742;2022-09-13T02:56:26;99739.50;;;6.00;100.00
65280;BME280;51878;55.748;48.742;2022-09-13T02:59:02;99678.19;;;5.67;100.00
65280;BME280;51878;55.748;48.742;2022-09-13T03:01:34;99740.19;;;6.03;100.00
65280;BME280;51878;55.748;48.742;2022-09-13T03:04:02;99686.66;;;5.72;100.00
65280;BME280;51878;55.748;48.742;2022-09-13T03:06:29;99630.31;;;5.43;100.00
65280;BME280;51878;55.748;48.742;2022-09-13T03:08:59;99716.56;;;5.96;100.00
65280;BME280;51878;55.748;48.742;2022-09-13T03:12:09;99743.72;;;6.31;100.00
65280;BME280;51878;55.748;48.742;2022-09-13T03:15:14;99733.94;;;6.48;100.00
65280;BME280;51878;55.748;48.742;2022-09-13T03:40:37;99659.41;;;6.74;95.05
65280;BME280;51878;55.748;48.742;2022-09-13T03:45:46;99689.13;;;6.82;94.77
65280;BME280;51878;55.748;48.742;2022-09-13T03:48:15;99710.84;;;7.07;95.84
65280;BME280;51878;55.748;48.742;2022-09-13T03:50:45;99729.59;;;7.35;94.24
65280;BME280;51878;55.748;48.742;2022-09-13T03:53:19;99726.50;;;7.56;93.81
65280;BME280;51878;55.748;48.742;2022-09-13T03:55:47;99715.31;;;7.77;92.38
65280;BME280;51878;55.748;48.742;2022-09-13T03:58:16;99691.31;;;7.74;91.75
65280;BME280;51878;55.748;48.742;2022-09-13T04:00:44;99664.56;;;7.46;91.75
65280;BME280;51878;55.748;48.742;2022-09-13T04:03:13;99610.34;;;7.23;90.23
65280;BME280;51878;55.748;48.742;2022-09-13T04:05:41;99722.09;;;7.81;91.33
65280;BME280;51878;55.748;48.742;2022-09-13T04:08:08;99648.13;;;7.65;90.09
65280;BME280;51878;55.748;48.742;2022-09-13T04:10:35;99682.66;;;7.96;89.06
65280;BME280;51878;55.748;48.742;2022-09-13T04:13:03;99699.91;;;8.20;88.04
65280;BME280;51878;55.748;48.742;2022-09-13T04:15:31;99685.25;;;8.31;86.50
65280;BME280;51878;55.748;48.742;2022-09-13T04:17:59;99616.78;;;7.73;85.58
65280;BME280;51878;55.748;48.742;2022-09-13T04:20:26;99685.56;;;8.19;86.26
65280;BME280;51878;55.748;48.742;2022-09-13T04:22:55;99594.75;;;7.94;84.42
65280;BME280;51878;55.748;48.742;2022-09-13T04:25:23;99678.22;;;8.79;82.09
65280;BME280;51878;55.748;48.742;2022-09-13T04:27:54;99703.25;;;8.81;81.58
65280;BME280;51878;55.748;48.742;2022-09-13T04:30:21;99669.63;;;8.67;81.40
65280;BME280;51878;55.748;48.742;2022-09-13T04:33:08;99715.72;;;9.23;79.60
65280;BME280;51878;55.748;48.742;2022-09-13T04:35:35;99650.34;;;8.70;80.46
65280;BME280;51878;55.748;48.742;2022-09-13T04:38:02;99720.25;;;9.39;79.05
65280;BME280;51878;55.748;48.742;2022-09-13T04:40:29;99706.69;;;9.55;77.69
65280;BME280;51878;55.748;48.742;2022-09-13T04:42:59;99712.16;;;10.26;74.78
65280;BME280;51878;55.748;48.742;2022-09-13T04:45:27;99709.44;;;10.34;74.28
65280;BME280;51878;55.748;48.742;2022-09-13T04:47:56;99703.22;;;10.71;73.21
65280;BME280;51878;55.748;48.742;2022-09-13T04:50:25;99663.63;;;10.62;71.48
65280;BME280;51878;55.748;48.742;2022-09-13T04:52:55;99709.94;;;11.36;70.19
65280;BME280;51878;55.748;48.742;2022-09-13T04:55:22;99647.94;;;11.10;68.76
65280;BME280;51878;55.748;48.742;2022-09-13T04:57:52;99673.44;;;11.39;67.29
65280;BME280;51878;55.748;48.742;2022-09-13T05:00:20;99708.84;;;11.61;67.76
65280;BME280;51878;55.748;48.742;2022-09-13T05:02:47;99733.84;;;11.71;66.71
65280;BME280;51878;55.748;48.742;2022-09-13T05:05:23;99658.53;;;11.05;68.49
65280;BME280;51878;55.748;48.742;2022-09-13T05:07:55;99736.41;;;12.38;65.80
65280;BME280;51878;55.748;48.742;2022-09-13T05:10:22;99662.84;;;10.30;68.57
65280;BME280;51878;55.748;48.742;2022-09-13T05:12:51;99733.22;;;10.47;70.33
65280;BME280;51878;55.748;48.742;2022-09-13T05:15:18;99705.72;;;9.87;72.41
65280;BME280;51878;55.748;48.742;2022-09-13T05:17:45;99749.41;;;10.24;72.95
65280;BME280;51878;55.748;48.742;2022-09-13T05:20:12;99677.22;;;9.60;73.57
65280;BME280;51878;55.748;48.742;2022-09-13T05:22:39;99750.66;;;10.13;73.62
65280;BME280;51878;55.748;48.742;2022-09-13T05:25:07;99763.81;;;10.16;74.83
65280;BME280;51878;55.748;48.742;2022-09-13T05:27:35;99765.81;;;9.91;76.43
65280;BME280;51878;55.748;48.742;2022-09-13T05:30:03;99703.84;;;9.32;77.42
65280;BME280;51878;55.748;48.742;2022-09-13T05:32:31;99738.81;;;9.66;77.44
65280;BME280;51878;55.748;48.742;2022-09-13T05:34:58;99712.66;;;9.26;79.69
65280;BME280;51878;55.748;48.742;2022-09-13T05:37:25;99682.47;;;8.98;79.76
65280;BME280;51878;55.748;48.742;2022-09-13T05:39:52;99752.03;;;9.45;80.21
65280;BME280;51878;55.748;48.742;2022-09-13T05:42:36;99767.25;;;9.62;80.75
65280;BME280;51878;55.748;48.742;2022-09-13T05:45:04;99702.19;;;9.15;81.06
65280;BME280;51878;55.748;48.742;2022-09-13T05:47:50;99696.41;;;9.26;81.63
65280;BME280;51878;55.748;48.742;2022-09-13T05:50:18;99761.16;;;9.60;80.66
65280;BME280;51878;55.748;48.742;2022-09-13T05:53:06;99757.28;;;9.46;81.36
65280;BME280;51878;55.748;48.742;2022-09-13T05:55:33;99778.91;;;9.71;81.88
65280;BME280;51878;55.748;48.742;2022-09-13T05:58:03;99706.44;;;8.93;82.35
65280;BME280;51878;55.748;48.742;2022-09-13T06:00:37;99717.44;;;9.07;82.79
65280;BME280;51878;55.748;48.742;2022-09-13T06:03:04;99765.78;;;9.35;83.33
65280;BME280;51878;55.748;48.742;2022-09-13T06:05:31;99657.59;;;8.86;82.84
65280;BME280;51878;55.748;48.742;2022-09-13T06:07:58;99755.22;;;9.57;82.26
65280;BME280;51878;55.748;48.742;2022-09-13T06:10:28;99631.78;;;8.67;82.72
65280;BME280;51878;55.748;48.742;2022-09-13T06:12:55;99661.50;;;8.75;82.86
65280;BME280;51878;55.748;48.742;2022-09-13T06:15:22;99768.97;;;9.39;83.49
65280;BME280;51878;55.748;48.742;2022-09-13T06:17:49;99723.34;;;8.95;83.71
65280;BME280;51878;55.748;48.742;2022-09-13T06:20:16;99725.53;;;9.24;83.70
65280;BME280;51878;55.748;48.742;2022-09-13T06:22:48;99758.66;;;9.98;82.20
65280;BME280;51878;55.748;48.742;2022-09-13T06:25:16;99690.63;;;9.93;79.30
65280;BME280;51878;55.748;48.742;2022-09-13T06:27:43;99744.50;;;10.82;77.43
65280;BME280;51878;55.748;48.742;2022-09-13T06:30:13;99726.97;;;11.30;75.11
65280;BME280;51878;55.748;48.742;2022-09-13T06:32:41;99687.75;;;10.95;74.59
65280;BME280;51878;55.748;48.742;2022-09-13T06:35:08;99703.31;;;11.69;72.32
65280;BME280;51878;55.748;48.742;2022-09-13T06:37:35;99711.66;;;11.67;72.20
65280;BME280;51878;55.748;48.742;2022-09-13T06:40:03;99592.47;;;11.28;72.45
65280;BME280;51878;55.748;48.742;2022-09-13T06:42:35;99702.72;;;13.26;67.83
65280;BME280;51878;55.748;48.742;2022-09-13T06:45:06;99720.28;;;14.21;63.97
65280;BME280;51878;55.748;48.742;2022-09-13T06:47:34;99724.09;;;15.08;59.86
65280;BME280;51878;55.748;48.742;2022-09-13T06:50:03;99661.00;;;16.53;54.77
65280;BME280;51878;55.748;48.742;2022-09-13T06:52:31;99715.91;;;17.72;51.21
65280;BME280;51878;55.748;48.742;2022-09-13T06:54:58;99658.94;;;17.12;50.37
65280;BME280;51878;55.748;48.742;2022-09-13T06:57:29;99654.91;;;16.89;50.84
65280;BME280;51878;55.748;48.742;2022-09-13T06:59:56;99693.59;;;17.25;49.77
65280;BME280;51878;55.748;48.742;2022-09-13T07:02:23;99724.44;;;21.09;41.14
65280;BME280;51878;55.748;48.742;2022-09-13T07:04:51;99642.28;;;22.82;36.44
65280;BME280;51878;55.748;48.742;2022-09-13T07:07:18;99728.72;;;23.59;35.43
65280;BME280;51878;55.748;48.742;2022-09-13T07:09:45;99739.53;;;19.49;43.28
65280;BME280;51878;55.748;48.742;2022-09-13T07:12:12;99614.91;;;16.25;48.21
65280;BME280;51878;55.748;48.742;2022-09-13T07:14:43;99733.31;;;16.77;49.60
65280;BME280;51878;55.748;48.742;2022-09-13T07:17:10;99727.66;;;15.55;53.64
65280;BME280;51878;55.748;48.742;2022-09-13T07:19:37;99705.81;;;15.22;55.75
65280;BME280;51878;55.748;48.742;2022-09-13T07:22:04;99708.31;;;16.28;51.78
65280;BME280;51878;55.748;48.742;2022-09-13T07:24:31;99653.34;;;16.37;49.93
65280;BME280;51878;55.748;48.742;2022-09-13T07:26:58;99599.63;;;15.45;51.12
65280;BME280;51878;55.748;48.742;2022-09-13T07:29:25;99671.81;;;15.96;51.48
65280;BME280;51878;55.748;48.742;2022-09-13T07:31:53;99666.47;;;17.42;45.58
65280;BME280;51878;55.748;48.742;2022-09-13T07:34:23;99683.53;;;16.93;46.59
65280;BME280;51878;55.748;48.742;2022-09-13T07:36:50;99695.81;;;16.01;49.32
65280;BME280;51878;55.748;48.742;2022-09-13T07:39:18;99712.53;;;17.95;46.93
65280;BME280;51878;55.748;48.742;2022-09-13T07:41:49;99653.59;;;17.61;45.49
65280;BME280;51878;55.748;48.742;2022-09-13T07:44:16;99673.72;;;17.73;45.47
65280;BME280;51878;55.748;48.742;2022-09-13T07:46:43;99642.81;;;15.95;47.47
65280;BME280;51878;55.748;48.742;2022-09-13T07:49:12;99557.50;;;14.35;50.84
65280;BME280;51878;55.748;48.742;2022-09-13T07:51:41;99654.75;;;14.56;52.13
65280;BME280;51878;55.748;48.742;2022-09-13T07:54:17;99707.66;;;14.81;52.77
65280;BME280;51878;55.748;48.742;2022-09-13T07:56:45;99668.59;;;13.99;54.64
65280;BME280;51878;55.748;48.742;2022-09-13T07:59:15;99630.47;;;12.95;58.34
65280;BME280;51878;55.748;48.742;2022-09-13T08:01:44;99715.97;;;13.92;56.74
65280;BME280;51878;55.748;48.742;2022-09-13T08:04:18;99714.28;;;13.06;59.67
65280;BME280;51878;55.748;48.742;2022-09-13T08:06:46;99665.72;;;12.81;59.59
65280;BME280;51878;55.748;48.742;2022-09-13T08:09:14;99706.22;;;13.41;58.94
65280;BME280;51878;55.748;48.742;2022-09-13T08:11:49;99717.25;;;13.11;61.06
65280;BME280;51878;55.748;48.742;2022-09-13T08:14:21;99676.91;;;12.93;58.91
65280;BME280;51878;55.748;48.742;2022-09-13T08:16:49;99727.91;;;13.06;58.83
65280;BME280;51878;55.748;48.742;2022-09-13T08:19:17;99702.88;;;12.96;58.99
65280;BME280;51878;55.748;48.742;2022-09-13T08:21:45;99723.75;;;13.32;59.80
65280;BME280;51878;55.748;48.742;2022-09-13T08:24:17;99718.09;;;13.33;58.81
65280;BME280;51878;55.748;48.742;2022-09-13T08:26:45;99707.19;;;13.33;61.16
65280;BME280;51878;55.748;48.742;2022-09-13T08:29:15;99716.13;;;13.49;59.75
65280;BME280;51878;55.748;48.742;2022-09-13T08:31:45;99711.41;;;13.36;60.04
65280;BME280;51878;55.748;48.742;2022-09-13T08:34:14;99705.41;;;13.40;59.63
65280;BME280;51878;55.748;48.742;2022-09-13T08:36:42;99660.16;;;12.90;60.69
65280;BME280;51878;55.748;48.742;2022-09-13T08:39:10;99714.16;;;13.14;60.66
65280;BME280;51878;55.748;48.742;2022-09-13T08:49:39;99660.91;;;13.33;59.10
65280;BME280;51878;55.748;48.742;2022-09-13T08:52:28;99539.03;;;12.44;58.38
65280;BME280;51878;55.748;48.742;2022-09-13T08:55:01;99697.69;;;13.51;58.71
65280;BME280;51878;55.748;48.742;2022-09-13T08:57:52;99668.38;;;13.53;57.67
65280;BME280;51878;55.748;48.742;2022-09-13T09:00:38;99688.91;;;13.90;57.35
65280;BME280;51878;55.748;48.742;2022-09-13T09:05:48;99694.84;;;14.00;55.47
65280;BME280;51878;55.748;48.742;2022-09-13T09:10:52;99695.25;;;14.04;55.92
65280;BME280;51878;55.748;48.742;2022-09-13T09:13:34;99676.72;;;14.41;53.63
65280;BME280;51878;55.748;48.742;2022-09-13T09:16:09;99684.75;;;14.56;53.30
65280;BME280;51878;55.748;48.742;2022-09-13T09:18:44;99656.44;;;14.77;52.18
65280;BME280;51878;55.748;48.742;2022-09-13T09:21:16;99653.06;;;14.81;51.44
65280;BME280;51878;55.748;48.742;2022-09-13T09:23:51;99695.09;;;15.27;50.67
65280;BME280;51878;55.748;48.742;2022-09-13T09:26:23;99622.84;;;14.70;50.51
65280;BME280;51878;55.748;48.742;2022-09-13T09:29:18;99682.91;;;14.96;50.19
65280;BME280;51878;55.748;48.742;2022-09-13T09:37:24;99546.19;;;14.44;49.63
65280;BME280;51878;55.748;48.742;2022-09-13T09:39:57;99671.75;;;15.31;48.78
65280;BME280;51878;55.748;48.742;2022-09-13T09:42:32;99685.06;;;16.06;47.46
65280;BME280;51878;55.748;48.742;2022-09-13T09:47:46;99631.53;;;15.58;46.20
65280;BME280;51878;55.748;48.742;2022-09-13T09:50:22;99668.06;;;16.36;44.50
65280;BME280;51878;55.748;48.742;2022-09-13T09:58:04;99589.38;;;16.88;39.15
65280;BME280;51878;55.748;48.742;2022-09-13T10:00:34;99592.41;;;16.80;39.54
65280;BME280;51878;55.748;48.742;2022-09-13T10:03:07;99642.38;;;17.44;40.30
65280;BME280;51878;55.748;48.742;2022-09-13T10:05:41;99611.03;;;17.40;39.26
65280;BME280;51878;55.748;48.742;2022-09-13T10:08:31;99657.22;;;18.58;37.63
65280;BME280;51878;55.748;48.742;2022-09-13T10:10:59;99602.09;;;17.81;37.70
65280;BME280;51878;55.748;48.742;2022-09-13T10:13:28;99548.69;;;17.65;37.09
65280;BME280;51878;55.748;48.742;2022-09-13T10:16:00;99600.94;;;18.91;36.99
65280;BME280;51878;55.748;48.742;2022-09-13T10:18:32;99597.09;;;18.38;37.55
65280;BME280;51878;55.748;48.742;2022-09-13T10:23:46;99639.28;;;18.44;37.02
65280;BME280;51878;55.748;48.742;2022-09-13T10:26:19;99648.31;;;17.59;38.29
65280;BME280;51878;55.748;48.742;2022-09-13T10:28:59;99613.91;;;17.63;37.52
65280;BME280;51878;55.748;48.742;2022-09-13T10:31:36;99647.03;;;18.89;36.54
65280;BME280;51878;55.748;48.742;2022-09-13T10:34:16;99573.47;;;18.37;36.72
65280;BME280;51878;55.748;48.742;2022-09-13T10:37:00;99540.19;;;17.37;36.96
65280;BME280;51878;55.748;48.742;2022-09-13T10:39:31;99633.69;;;18.51;36.71
65280;BME280;51878;55.748;48.742;2022-09-13T10:45:07;99629.38;;;18.85;35.32
65280;BME280;51878;55.748;48.742;2022-09-13T10:47:47;99608.13;;;19.04;34.42
65280;BME280;51878;55.748;48.742;2022-09-13T10:50:29;99571.13;;;18.53;34.84
65280;BME280;51878;55.748;48.742;2022-09-13T10:53:02;99563.66;;;18.30;34.98
65280;BME280;51878;55.748;48.742;2022-09-13T10:55:36;99558.75;;;18.20;35.41
65280;BME280;51878;55.748;48.742;2022-09-13T11:00:38;99626.94;;;18.65;34.59
65280;BME280;51878;55.748;48.742;2022-09-13T11:05:49;99617.56;;;19.08;33.60
65280;BME280;51878;55.748;48.742;2022-09-13T11:19:50;99619.25;;;17.95;35.32
65280;BME280;51878;55.748;48.742;2022-09-13T11:33:54;99612.59;;;18.03;35.10
65280;BME280;51878;55.748;48.742;2022-09-13T11:45:19;99603.72;;;17.70;37.26
65280;BME280;51878;55.748;48.742;2022-09-13T11:48:08;99578.97;;;17.40;36.45
65280;BME280;51878;55.748;48.742;2022-09-13T11:56:39;99553.47;;;16.71;37.68
65280;BME280;51878;55.748;48.742;2022-09-13T12:01:53;99598.56;;;16.43;39.82
65280;BME280;51878;55.748;48.742;2022-09-13T12:04:36;99601.09;;;16.70;37.68
65280;BME280;51878;55.748;48.742;2022-09-13T12:07:13;99604.72;;;16.64;39.28
65280;BME280;51878;55.748;48.742;2022-09-13T12:09:52;99550.19;;;16.05;38.74
65280;BME280;51878;55.748;48.742;2022-09-13T12:12:24;99576.84;;;16.17;38.99
65280;BME280;51878;55.748;48.742;2022-09-13T12:15:02;99575.31;;;16.27;39.05
65280;BME280;51878;55.748;48.742;2022-09-13T12:18:12;99602.09;;;16.19;39.84
65280;BME280;51878;55.748;48.742;2022-09-13T12:20:53;99590.25;;;15.86;40.95
65280;BME280;51878;55.748;48.742;2022-09-13T12:23:27;99580.22;;;15.67;39.88
65280;BME280;51878;55.748;48.742;2022-09-13T12:28:33;99507.47;;;15.14;41.14
65280;BME280;51878;55.748;48.742;2022-09-13T12:31:17;99543.09;;;15.46;41.13
65280;BME280;51878;55.748;48.742;2022-09-13T12:33:46;99537.41;;;15.47;41.05
65280;BME280;51878;55.748;48.742;2022-09-13T12:36:26;99537.09;;;15.24;41.61
65280;BME280;51878;55.748;48.742;2022-09-13T12:44:53;99597.53;;;15.47;42.47
65280;BME280;51878;55.748;48.742;2022-09-13T13:05:23;99518.50;;;14.61;45.35
65280;BME280;51878;55.748;48.742;2022-09-13T13:08:00;99582.28;;;15.06;45.26
65280;BME280;51878;55.748;48.742;2022-09-13T13:10:36;99536.56;;;14.69;45.37
65280;BME280;51878;55.748;48.742;2022-09-13T13:18:44;99568.88;;;14.85;45.34
65280;BME280;51878;55.748;48.742;2022-09-13T13:26:50;99544.09;;;14.20;46.95
65280;BME280;51878;55.748;48.742;2022-09-13T13:29:29;99493.72;;;13.89;47.28
65280;BME280;51878;55.748;48.742;2022-09-13T13:34:40;99547.19;;;13.97;47.59
65280;BME280;51878;55.748;48.742;2022-09-13T13:39:40;99491.13;;;13.68;48.03
65280;BME280;51878;55.748;48.742;2022-09-13T13:42:25;99537.47;;;13.74;48.26
65280;BME280;51878;55.748;48.742;2022-09-13T13:49:52;99534.53;;;13.62;50.06
65280;BME280;51878;55.748;48.742;2022-09-13T13:57:31;99537.06;;;13.84;50.28
65280;BME280;51878;55.748;48.742;2022-09-13T14:00:14;99529.13;;;13.82;50.60
65280;BME280;51878;55.748;48.742;2022-09-13T14:11:04;99532.25;;;13.79;51.01
65280;BME280;51878;55.748;48.742;2022-09-13T14:16:07;99524.09;;;13.86;50.51
65280;BME280;51878;55.748;48.742;2022-09-13T14:21:22;99455.44;;;13.42;51.37
65280;BME280;51878;55.748;48.742;2022-09-13T14:23:50;99442.69;;;13.43;50.70
65280;BME280;51878;55.748;48.742;2022-09-13T14:26:32;99433.59;;;13.29;50.31
65280;BME280;51878;55.748;48.742;2022-09-13T14:28:59;99502.41;;;13.58;50.00
65280;BME280;51878;55.748;48.742;2022-09-13T14:31:26;99510.19;;;13.54;50.22
65280;BME280;51878;55.748;48.742;2022-09-13T14:33:53;99447.75;;;13.11;50.39
65280;BME280;51878;55.748;48.742;2022-09-13T14:36:21;99474.41;;;13.22;51.16
65280;BME280;51878;55.748;48.742;2022-09-13T14:38:56;99422.28;;;12.43;51.85
65280;BME280;51878;55.748;48.742;2022-09-13T14:41:36;99408.34;;;12.52;53.18
65280;BME280;51878;55.748;48.742;2022-09-13T14:44:20;99428.81;;;12.48;52.80
65280;BME280;51878;55.748;48.742;2022-09-13T14:47:16;99462.78;;;12.59;52.94
65280;BME280;51878;55.748;48.742;2022-09-13T14:49:49;99445.94;;;12.42;53.53
65280;BME280;51878;55.748;48.742;2022-09-13T14:52:20;99472.53;;;12.47;53.81
65280;BME280;51878;55.748;48.742;2022-09-13T14:54:52;99450.38;;;12.22;54.32
65280;BME280;51878;55.748;48.742;2022-09-13T14:57:33;99411.34;;;11.79;54.79
65280;BME280;51878;55.748;48.742;2022-09-13T15:00:14;99416.38;;;11.83;55.34
65280;BME280;51878;55.748;48.742;2022-09-13T15:02:57;99441.66;;;11.83;55.43
65280;BME280;51878;55.748;48.742;2022-09-13T15:05:27;99462.75;;;11.81;56.12
65280;BME280;51878;55.748;48.742;2022-09-13T15:07:56;99419.03;;;11.54;56.12
65280;BME280;51878;55.748;48.742;2022-09-13T15:10:25;99478.25;;;11.66;57.01
65280;BME280;51878;55.748;48.742;2022-09-13T15:15:42;99467.56;;;11.43;58.28
65280;BME280;51878;55.748;48.742;2022-09-13T15:20:49;99473.44;;;11.46;58.33
65280;BME280;51878;55.748;48.742;2022-09-13T15:25:53;99478.16;;;11.37;58.93
65280;BME280;51878;55.748;48.742;2022-09-13T15:28:27;99460.78;;;11.17;60.00
65280;BME280;51878;55.748;48.742;2022-09-13T15:30:57;99453.97;;;11.06;60.18
65280;BME280;51878;55.748;48.742;2022-09-13T15:33:28;99436.06;;;10.90;59.95
65280;BME280;51878;55.748;48.742;2022-09-13T15:36:31;99467.63;;;11.13;60.89
65280;BME280;51878;55.748;48.742;2022-09-13T15:41:37;99409.81;;;10.61;61.43
65280;BME280;51878;55.748;48.742;2022-09-13T15:44:07;99353.53;;;10.19;62.25
65280;BME280;51878;55.748;48.742;2022-09-13T15:46:52;99415.41;;;10.30;63.34
65280;BME280;51878;55.748;48.742;2022-09-13T15:49:22;99368.09;;;10.18;62.76
65280;BME280;51878;55.748;48.742;2022-09-13T15:51:55;99482.56;;;10.87;63.13
65280;BME280;51878;55.748;48.742;2022-09-13T15:54:34;99494.63;;;10.85;63.24
65280;BME280;51878;55.748;48.742;2022-09-13T15:57:12;99492.00;;;10.77;63.92
65280;BME280;51878;55.748;48.742;2022-09-13T15:59:42;99387.13;;;10.09;63.86
65280;BME280;51878;55.748;48.742;2022-09-13T16:02:21;99378.69;;;9.89;64.97
65280;BME280;51878;55.748;48.742;2022-09-13T16:04:49;99372.41;;;9.74;65.58
65280;BME280;51878;55.748;48.742;2022-09-13T16:07:17;99481.78;;;10.34;65.82
65280;BME280;51878;55.748;48.742;2022-09-13T16:09:45;99430.47;;;10.09;65.82
65280;BME280;51878;55.748;48.742;2022-09-13T16:12:14;99430.97;;;10.13;65.75
65280;BME280;51878;55.748;48.742;2022-09-13T16:14:41;99447.97;;;10.22;65.73
65280;BME280;51878;55.748;48.742;2022-09-13T16:17:19;99456.81;;;10.39;65.82
65280;BME280;51878;55.748;48.742;2022-09-13T16:19:46;99465.78;;;10.39;66.17
65280;BME280;51878;55.748;48.742;2022-09-13T16:22:14;99452.19;;;10.24;66.41
65280;BME280;51878;55.748;48.742;2022-09-13T16:24:41;99476.72;;;10.46;66.35
65280;BME280;51878;55.748;48.742;2022-09-13T16:27:12;99474.75;;;10.40;66.96
65280;BME280;51878;55.748;48.742;2022-09-13T16:29:40;99417.47;;;9.90;67.27
65280;BME280;51878;55.748;48.742;2022-09-13T16:32:07;99430.19;;;10.04;66.80
65280;BME280;51878;55.748;48.742;2022-09-13T16:34:35;99471.88;;;10.18;67.92
65280;BME280;51878;55.748;48.742;2022-09-13T16:37:02;99470.97;;;10.26;67.66
65280;BME280;51878;55.748;48.742;2022-09-13T16:39:30;99477.88;;;10.28;67.92
65280;BME280;51878;55.748;48.742;2022-09-13T16:41:57;99449.44;;;9.95;68.48
65280;BME280;51878;55.748;48.742;2022-09-13T16:44:24;99460.91;;;9.97;68.66
65280;BME280;51878;55.748;48.742;2022-09-13T16:46:52;99492.44;;;10.12;69.01
65280;BME280;51878;55.748;48.742;2022-09-13T16:49:19;99487.75;;;10.06;69.22
65280;BME280;51878;55.748;48.742;2022-09-13T16:51:46;99457.22;;;9.89;69.31
65280;BME280;51878;55.748;48.742;2022-09-13T16:54:13;99486.97;;;9.98;69.89